createdAt,value
2022-10-17T00:01:19.272Z,12.50
2022-10-17T00:04:22.415Z,12.51
2022-10-17T00:07:25.619Z,12.61
2022-10-17T00:10:28.718Z,12.48
2022-10-17T00:13:34.514Z,12.40
2022-10-17T00:16:37.941Z,12.31
2022-10-17T00:19:40.595Z,12.18
2022-10-17T00:22:43.930Z,12.06
2022-10-17T00:25:47.076Z,11.87
2022-10-17T00:28:51.798Z,11.96
2022-10-17T00:31:56.396Z,11.92
2022-10-17T00:35:01.598Z,11.93
2022-10-17T00:38:04.191Z,11.86
2022-10-17T00:41:08.868Z,11.84
2022-10-17T00:44:31.706Z,12.00
2022-10-17T00:47:36.996Z,11.97
2022-10-17T00:50:43.273Z,11.80
2022-10-17T00:53:46.373Z,11.67
2022-10-17T00:56:55.204Z,11.48
2022-10-17T01:00:00.032Z,11.47
2022-10-17T01:03:02.789Z,11.46
2022-10-17T01:06:05.898Z,11.37
2022-10-17T01:09:08.759Z,11.36
2022-10-17T01:12:20.766Z,11.42
2022-10-17T01:15:26.057Z,11.37
2022-10-17T01:18:51.882Z,11.28
2022-10-17T01:22:09.291Z,11.24
2022-10-17T01:25:35.509Z,11.25
2022-10-17T01:28:59.645Z,11.24
2022-10-17T01:32:23.209Z,11.28
2022-10-17T01:35:53.894Z,11.47
2022-10-17T01:39:21.281Z,11.61
2022-10-17T01:43:09.095Z,11.54
2022-10-17T01:46:19.791Z,11.40
2022-10-17T01:49:27.159Z,11.32
2022-10-17T01:52:38.899Z,11.41
2022-10-17T01:55:45.145Z,11.26
2022-10-17T01:59:00.837Z,11.23
2022-10-17T02:02:05.352Z,11.42
2022-10-17T02:05:10.535Z,11.15
2022-10-17T02:08:14.032Z,11.10
2022-10-17T02:11:23.886Z,11.05
2022-10-17T02:14:37.809Z,10.99
2022-10-17T02:18:16.195Z,11.04
2022-10-17T02:21:48.151Z,11.00
2022-10-17T02:25:09.659Z,10.95
2022-10-17T02:28:25.832Z,10.84
2022-10-17T02:31:42.113Z,10.75
2022-10-17T02:34:52.723Z,10.96
2022-10-17T02:37:56.361Z,11.12
2022-10-17T02:41:01.150Z,11.06
2022-10-17T02:44:07.079Z,11.23
2022-10-17T02:47:18.673Z,11.16
2022-10-17T02:53:55.315Z,11.12
2022-10-17T02:57:04.501Z,11.12
2022-10-17T03:00:11.188Z,10.84
2022-10-17T03:03:27.413Z,10.75
2022-10-17T03:06:30.560Z,10.70
2022-10-17T03:09:33.718Z,10.88
2022-10-17T03:12:36.523Z,10.94
2022-10-17T03:15:39.522Z,10.94
2022-10-17T03:18:45.378Z,10.85
2022-10-17T03:21:51.021Z,10.92
2022-10-17T03:24:53.942Z,10.81
2022-10-17T03:28:00.583Z,10.91
2022-10-17T03:31:11.110Z,10.90
2022-10-17T03:34:16.908Z,10.81
2022-10-17T03:37:19.930Z,10.72
2022-10-17T03:40:23.191Z,10.71
2022-10-17T03:43:25.834Z,10.69
2022-10-17T03:46:28.834Z,10.67
2022-10-17T03:49:31.990Z,10.80
2022-10-17T03:52:35.144Z,10.69
2022-10-17T03:55:38.785Z,10.63
2022-10-17T03:58:42.634Z,10.57
2022-10-17T04:01:45.551Z,10.68
2022-10-17T04:04:49.766Z,10.65
2022-10-17T04:07:52.434Z,10.51
2022-10-17T04:11:01.059Z,10.69
2022-10-17T04:14:03.957Z,10.53
2022-10-17T04:17:07.013Z,10.57
2022-10-17T04:20:10.750Z,10.65
2022-10-17T04:23:13.856Z,10.73
2022-10-17T04:26:16.773Z,10.80
2022-10-17T04:29:19.788Z,10.74
2022-10-17T04:32:22.912Z,10.77
2022-10-17T04:35:26.334Z,10.83
2022-10-17T04:38:29.974Z,10.74
2022-10-17T04:41:33.048Z,10.96
2022-10-17T04:44:37.776Z,10.73
2022-10-17T04:47:41.140Z,10.83
2022-10-17T04:50:57.401Z,10.88
2022-10-17T04:54:01.290Z,10.76
2022-10-17T04:57:04.446Z,10.76
2022-10-17T05:03:20.580Z,10.73
2022-10-17T05:06:25.832Z,10.77
2022-10-17T05:09:30.956Z,10.82
2022-10-17T05:12:34.072Z,10.93
2022-10-17T05:15:37.926Z,11.12
2022-10-17T05:18:40.876Z,10.98
2022-10-17T05:21:46.327Z,10.91
2022-10-17T05:24:49.223Z,10.79
2022-10-17T05:27:51.887Z,10.78
2022-10-17T05:30:55.195Z,10.86
2022-10-17T05:34:02.719Z,10.72
2022-10-17T05:37:06.387Z,10.73
2022-10-17T05:40:09.687Z,10.69
2022-10-17T05:43:12.842Z,10.68
2022-10-17T05:46:15.525Z,10.66
2022-10-17T05:49:31.959Z,10.68
2022-10-17T05:52:36.176Z,10.72
2022-10-17T05:55:39.583Z,10.79
2022-10-17T05:58:51.547Z,11.23
2022-10-17T06:01:58.070Z,11.78
2022-10-17T06:05:02.375Z,11.81
2022-10-17T06:08:05.246Z,11.91
2022-10-17T06:11:10.486Z,12.07
2022-10-17T06:14:13.975Z,12.38
2022-10-17T06:17:17.376Z,13.00
2022-10-17T06:20:20.317Z,13.08
2022-10-17T06:23:23.402Z,13.01
2022-10-17T06:26:28.293Z,12.97
2022-10-17T06:29:31.847Z,12.97
2022-10-17T06:32:34.489Z,13.03
2022-10-17T06:35:37.494Z,13.13
2022-10-17T06:38:40.208Z,13.23
2022-10-17T06:41:45.141Z,13.38
2022-10-17T06:44:47.795Z,13.50
2022-10-17T06:47:53.867Z,13.62
2022-10-17T06:51:02.423Z,13.78
2022-10-17T06:54:05.462Z,13.96
2022-10-17T06:57:08.887Z,14.10
2022-10-17T07:00:12.836Z,14.22
2022-10-17T07:03:16.146Z,14.31
2022-10-17T07:06:19.413Z,14.47
2022-10-17T07:09:23.090Z,14.65
2022-10-17T07:12:26.596Z,14.79
2022-10-17T07:15:29.229Z,14.94
2022-10-17T07:18:32.778Z,15.07
2022-10-17T07:21:38.301Z,15.26
2022-10-17T07:24:42.727Z,15.37
2022-10-17T07:27:49.683Z,15.49
2022-10-17T07:30:55.373Z,15.57
2022-10-17T07:34:00.513Z,15.65
2022-10-17T07:37:04.365Z,15.80
2022-10-17T07:40:09.897Z,15.92
2022-10-17T07:43:13.042Z,16.11
2022-10-17T07:46:15.676Z,16.23
2022-10-17T07:49:20.008Z,16.35
2022-10-17T07:52:23.372Z,16.52
2022-10-17T07:55:26.298Z,16.61
2022-10-17T07:58:29.650Z,16.72
2022-10-17T08:01:32.536Z,16.77
2022-10-17T08:04:36.641Z,16.91
2022-10-17T08:07:40.527Z,17.12
2022-10-17T08:10:43.397Z,17.26
2022-10-17T08:13:46.028Z,17.40
2022-10-17T08:16:48.934Z,17.53
2022-10-17T08:19:51.689Z,17.62
2022-10-17T08:22:55.554Z,17.87
2022-10-17T08:26:03.565Z,18.02
2022-10-17T08:29:06.547Z,18.17
2022-10-17T08:32:10.340Z,18.31
2022-10-17T08:35:15.189Z,18.80
2022-10-17T08:38:20.921Z,19.37
2022-10-17T08:41:50.651Z,20.45
2022-10-17T08:44:55.919Z,22.14
2022-10-17T08:48:02.330Z,22.52
2022-10-17T08:51:16.478Z,23.71
2022-10-17T08:54:26.571Z,23.91
2022-10-17T08:57:29.692Z,24.21
2022-10-17T09:00:33.953Z,24.86
2022-10-17T09:04:09.827Z,24.31
2022-10-17T09:07:28.340Z,24.68
2022-10-17T09:10:36.909Z,25.55
2022-10-17T09:13:55.258Z,26.40
2022-10-17T09:17:07.475Z,25.56
2022-10-17T09:20:20.082Z,26.00
2022-10-17T09:23:30.440Z,26.18
2022-10-17T09:26:34.974Z,25.30
2022-10-17T09:29:42.940Z,25.50
2022-10-17T09:32:47.872Z,25.67
2022-10-17T09:35:51.748Z,24.70
2022-10-17T09:39:00.505Z,24.25
2022-10-17T09:42:04.529Z,25.33
2022-10-17T09:45:20.147Z,26.10
2022-10-17T09:48:37.337Z,25.72
2022-10-17T09:51:40.968Z,25.18
2022-10-17T09:55:08.633Z,24.12
2022-10-17T09:58:12.098Z,24.55
2022-10-17T10:01:29.494Z,24.58
2022-10-17T10:04:46.745Z,24.69
2022-10-17T10:08:13.632Z,24.25
2022-10-17T10:11:17.947Z,24.99
2022-10-17T10:14:39.868Z,25.66
2022-10-17T10:17:43.574Z,25.59
2022-10-17T10:20:47.072Z,25.66
2022-10-17T10:24:08.738Z,26.15
2022-10-17T10:27:17.043Z,26.24
2022-10-17T10:30:25.754Z,25.81
2022-10-17T10:33:30.702Z,25.75
2022-10-17T10:36:50.250Z,26.45
2022-10-17T10:39:57.318Z,26.21
2022-10-17T10:43:05.099Z,26.78
2022-10-17T10:46:18.519Z,27.06
2022-10-17T10:49:32.469Z,26.14
2022-10-17T10:52:44.484Z,25.82
2022-10-17T10:55:52.845Z,25.40
2022-10-17T10:59:26.726Z,25.81
2022-10-17T11:02:43.149Z,26.62
2022-10-17T11:06:01.347Z,26.09
2022-10-17T11:09:34.180Z,25.25
2022-10-17T11:15:54.035Z,27.21
2022-10-17T11:19:12.397Z,27.64
2022-10-17T11:22:31.386Z,27.76
2022-10-17T11:25:37.385Z,27.66
2022-10-17T11:28:40.374Z,27.35
2022-10-17T11:31:49.659Z,27.10
2022-10-17T11:34:59.609Z,27.64
2022-10-17T11:38:22.511Z,26.37
2022-10-17T11:41:46.592Z,27.56
2022-10-17T11:44:52.354Z,28.42
2022-10-17T11:48:08.080Z,27.80
2022-10-17T11:54:54.785Z,25.26
2022-10-17T11:58:48.550Z,25.08
2022-10-17T12:02:02.057Z,25.65
2022-10-17T12:05:20.532Z,25.79
2022-10-17T12:08:47.484Z,25.90
2022-10-17T12:11:59.986Z,26.59
2022-10-17T12:15:20.856Z,25.44
2022-10-17T12:18:27.577Z,26.39
2022-10-17T12:21:55.208Z,26.58
2022-10-17T12:25:02.870Z,25.23
2022-10-17T12:28:30.917Z,26.66
2022-10-17T12:31:34.382Z,26.95
2022-10-17T12:34:38.306Z,25.58
2022-10-17T12:38:02.347Z,27.08
2022-10-17T12:41:06.115Z,25.93
2022-10-17T12:44:15.141Z,26.50
2022-10-17T12:47:36.797Z,26.09
2022-10-17T12:51:34.220Z,25.65
2022-10-17T12:54:47.246Z,25.28
2022-10-17T12:58:11.101Z,25.80
2022-10-17T13:01:26.015Z,26.33
2022-10-17T13:04:31.167Z,25.53
2022-10-17T13:07:36.643Z,26.58
2022-10-17T13:10:43.090Z,26.63
2022-10-17T13:13:52.043Z,25.45
2022-10-17T13:16:56.504Z,25.17
2022-10-17T13:19:59.173Z,25.46
2022-10-17T13:23:03.305Z,25.25
2022-10-17T13:26:22.566Z,24.30
2022-10-17T13:29:26.353Z,23.69
2022-10-17T13:32:37.651Z,23.52
2022-10-17T13:36:00.378Z,23.35
2022-10-17T13:39:14.957Z,22.80
2022-10-17T13:42:40.820Z,22.65
2022-10-17T13:45:49.604Z,22.41
2022-10-17T13:48:57.555Z,22.07
2022-10-17T13:52:02.869Z,22.18
2022-10-17T13:55:17.828Z,22.01
2022-10-17T13:58:21.427Z,21.90
2022-10-17T14:01:26.924Z,21.86
2022-10-17T14:04:40.023Z,21.84
2022-10-17T14:08:11.980Z,21.83
2022-10-17T14:11:23.634Z,21.68
2022-10-17T14:14:27.245Z,21.49
2022-10-17T14:17:31.410Z,21.43
2022-10-17T14:24:21.352Z,21.35
2022-10-17T14:28:03.666Z,21.22
2022-10-17T14:31:30.143Z,21.19
2022-10-17T14:34:36.215Z,21.15
2022-10-17T14:37:45.807Z,21.04
2022-10-17T14:44:52.144Z,20.90
2022-10-17T14:48:01.195Z,20.84
2022-10-17T14:51:15.554Z,20.73
2022-10-17T14:54:27.475Z,20.65
2022-10-17T14:57:33.179Z,20.62
2022-10-17T15:00:35.692Z,20.54
2022-10-17T15:03:38.726Z,20.45
2022-10-17T15:06:41.969Z,20.42
2022-10-17T15:09:48.796Z,20.34
2022-10-17T15:13:04.512Z,20.28
2022-10-17T15:16:30.614Z,20.21
2022-10-17T15:19:33.710Z,20.10
2022-10-17T15:22:38.159Z,20.03
2022-10-17T15:25:41.033Z,19.91
2022-10-17T15:28:46.459Z,19.80
2022-10-17T15:31:49.119Z,19.73
2022-10-17T15:34:53.596Z,19.57
2022-10-17T15:37:56.257Z,19.47
2022-10-17T15:40:59.283Z,19.33
2022-10-17T15:44:01.886Z,19.18
2022-10-17T15:47:20.061Z,19.05
2022-10-17T15:50:22.958Z,18.89
2022-10-17T15:53:26.070Z,18.72
2022-10-17T15:56:41.486Z,18.55
2022-10-17T15:59:47.089Z,18.41
2022-10-17T16:02:51.546Z,18.27
2022-10-17T16:05:57.268Z,18.10
2022-10-17T16:08:59.929Z,17.95
2022-10-17T16:12:14.336Z,17.83
2022-10-17T16:15:23.004Z,17.72
2022-10-17T16:18:27.275Z,17.65
2022-10-17T16:21:33.281Z,17.61
2022-10-17T16:24:36.124Z,17.61
2022-10-17T16:27:39.361Z,17.61
2022-10-17T16:30:46.464Z,17.57
2022-10-17T16:33:51.666Z,17.54
2022-10-17T16:36:54.734Z,17.49
2022-10-17T16:39:58.265Z,17.57
2022-10-17T16:43:02.588Z,17.54
2022-10-17T16:46:05.427Z,17.47
2022-10-17T16:49:08.353Z,17.50
2022-10-17T16:52:11.551Z,17.36
2022-10-17T16:55:14.791Z,17.22
2022-10-17T16:58:17.543Z,17.03
2022-10-17T17:01:23.752Z,16.87
2022-10-17T17:04:26.899Z,16.68
2022-10-17T17:07:30.845Z,16.65
2022-10-17T17:10:34.763Z,16.55
2022-10-17T17:13:38.343Z,16.42
2022-10-17T17:16:42.189Z,16.35
2022-10-17T17:19:47.073Z,16.22
2022-10-17T17:22:51.000Z,16.07
2022-10-17T17:26:03.133Z,15.88
2022-10-17T17:29:06.018Z,15.76
2022-10-17T17:32:09.483Z,15.70
2022-10-17T17:35:12.607Z,15.66
2022-10-17T17:38:16.085Z,15.48
2022-10-17T17:41:20.912Z,15.49
2022-10-17T17:44:24.184Z,15.45
2022-10-17T17:47:31.459Z,15.36
2022-10-17T17:50:38.527Z,15.29
2022-10-17T17:53:41.493Z,15.44
2022-10-17T17:56:44.501Z,15.30
2022-10-17T17:59:48.700Z,15.22
2022-10-17T18:02:52.171Z,15.19
2022-10-17T18:05:55.441Z,15.14
2022-10-17T18:08:59.440Z,15.12
2022-10-17T18:12:02.859Z,15.18
2022-10-17T18:15:06.952Z,15.10
2022-10-17T18:18:10.969Z,14.93
2022-10-17T18:21:14.993Z,14.83
2022-10-17T18:24:23.603Z,14.82
2022-10-17T18:27:26.831Z,14.86
2022-10-17T18:30:33.720Z,14.86
2022-10-17T18:33:38.310Z,14.78
2022-10-17T18:36:41.632Z,14.76
2022-10-17T18:39:45.488Z,14.82
2022-10-17T18:42:48.833Z,14.88
2022-10-17T18:45:56.714Z,14.90
2022-10-17T18:49:00.151Z,14.99
2022-10-17T18:52:04.445Z,15.13
2022-10-17T18:55:08.295Z,15.09
2022-10-17T18:58:11.278Z,15.25
2022-10-17T19:01:18.041Z,15.17
2022-10-17T19:04:22.355Z,15.17
2022-10-17T19:07:25.467Z,15.29
2022-10-17T19:10:28.104Z,15.31
2022-10-17T19:13:32.194Z,15.39
2022-10-17T19:16:41.591Z,15.42
2022-10-17T19:19:46.471Z,15.47
2022-10-17T19:26:05.999Z,15.42
2022-10-17T19:29:12.679Z,15.40
2022-10-17T19:32:20.621Z,15.43
2022-10-17T19:35:28.691Z,15.48
2022-10-17T19:38:32.079Z,15.50
2022-10-17T19:41:36.536Z,15.50
2022-10-17T19:44:40.238Z,15.51
2022-10-17T19:47:42.892Z,15.54
2022-10-17T19:50:46.210Z,15.63
2022-10-17T19:53:48.920Z,15.72
2022-10-17T19:56:53.391Z,15.75
2022-10-17T19:59:56.651Z,15.74
2022-10-17T20:03:03.298Z,15.70
2022-10-17T20:06:07.116Z,15.69
2022-10-17T20:09:15.702Z,15.80
2022-10-17T20:12:21.791Z,15.83
2022-10-17T20:15:24.501Z,15.79
2022-10-17T20:18:27.808Z,15.77
2022-10-17T20:21:35.399Z,15.79
2022-10-17T20:24:38.310Z,15.73
2022-10-17T20:27:40.917Z,15.70
2022-10-17T20:30:47.979Z,15.68
2022-10-17T20:34:00.311Z,15.64
2022-10-17T20:37:03.332Z,15.57
2022-10-17T20:40:33.701Z,15.55
2022-10-17T20:43:30.822Z,15.61
2022-10-17T20:46:38.318Z,15.60
2022-10-17T20:49:44.933Z,15.54
2022-10-17T20:52:47.645Z,15.49
2022-10-17T20:56:01.940Z,15.44
2022-10-17T20:59:08.374Z,15.38
2022-10-17T21:02:12.701Z,15.37
2022-10-17T21:05:17.865Z,15.22
2022-10-17T21:08:21.213Z,15.26
2022-10-17T21:11:26.227Z,15.19
2022-10-17T21:14:29.208Z,15.18
2022-10-17T21:17:31.968Z,15.27
2022-10-17T21:20:35.783Z,15.12
2022-10-17T21:23:40.855Z,15.17
2022-10-17T21:26:45.834Z,15.19
2022-10-17T21:29:48.611Z,15.05
2022-10-17T21:32:55.169Z,14.91
2022-10-17T21:35:58.084Z,14.83
2022-10-17T21:39:01.241Z,14.82
2022-10-17T21:42:04.138Z,14.80
2022-10-17T21:45:15.322Z,14.87
2022-10-17T21:48:22.752Z,14.64
2022-10-17T21:51:26.905Z,14.58
2022-10-17T21:54:29.502Z,14.58
2022-10-17T21:57:32.397Z,14.67
2022-10-17T22:00:36.154Z,14.60
2022-10-17T22:03:44.096Z,14.64
2022-10-17T22:06:53.491Z,14.67
2022-10-17T22:09:56.376Z,14.70
2022-10-17T22:12:58.973Z,14.75
2022-10-17T22:16:10.214Z,14.56
2022-10-17T22:19:14.971Z,14.62
2022-10-17T22:22:17.934Z,14.40
2022-10-17T22:25:20.596Z,14.24
2022-10-17T22:28:24.621Z,14.12
2022-10-17T22:31:27.690Z,14.04
2022-10-17T22:34:30.747Z,14.03
2022-10-17T22:37:33.596Z,14.06
2022-10-17T22:40:36.653Z,14.11
2022-10-17T22:43:39.307Z,14.13
2022-10-17T22:46:42.231Z,14.22
2022-10-17T22:49:46.054Z,14.26
2022-10-17T22:52:51.280Z,14.30
2022-10-17T22:55:59.018Z,14.38
2022-10-17T22:59:01.955Z,14.38
2022-10-17T23:02:04.619Z,14.44
2022-10-17T23:05:08.054Z,14.39
2022-10-17T23:08:12.281Z,14.31
2022-10-17T23:11:15.582Z,14.33
2022-10-17T23:14:18.263Z,14.16
2022-10-17T23:17:23.426Z,13.94
2022-10-17T23:20:26.251Z,13.85
2022-10-17T23:23:29.236Z,13.73
2022-10-17T23:26:31.826Z,13.68
2022-10-17T23:29:34.929Z,13.36
2022-10-17T23:32:38.649Z,13.18
2022-10-17T23:35:44.831Z,13.09
2022-10-17T23:38:49.018Z,12.91
2022-10-17T23:41:52.299Z,12.85
2022-10-17T23:44:55.062Z,12.79
2022-10-17T23:47:57.922Z,12.60
2022-10-17T23:51:00.885Z,12.46
2022-10-17T23:54:04.890Z,12.32
2022-10-17T23:57:07.517Z,12.44
